createdAt,value
2022-07-26T00:00:17.578Z,1007.62
2022-07-26T00:01:17.611Z,1007.60
2022-07-26T00:02:18.607Z,1007.59
2022-07-26T00:03:17.528Z,1007.57
2022-07-26T00:04:17.552Z,1007.58
2022-07-26T00:05:17.529Z,1007.63
2022-07-26T00:06:18.895Z,1007.58
2022-07-26T00:07:17.490Z,1007.59
2022-07-26T00:08:17.470Z,1007.58
2022-07-26T00:09:17.476Z,1007.54
2022-07-26T00:10:17.469Z,1007.51
2022-07-26T00:11:17.448Z,1007.55
2022-07-26T00:12:17.461Z,1007.60
2022-07-26T00:13:17.428Z,1007.56
2022-07-26T00:14:17.419Z,1007.57
2022-07-26T00:15:17.441Z,1007.59
2022-07-26T00:16:17.480Z,1007.54
2022-07-26T00:17:17.381Z,1007.60
2022-07-26T00:18:17.376Z,1007.61
2022-07-26T00:19:17.355Z,1007.59
2022-07-26T00:20:17.389Z,1007.63
2022-07-26T00:21:17.345Z,1007.64
2022-07-26T00:22:17.373Z,1007.66
2022-07-26T00:23:17.314Z,1007.68
2022-07-26T00:24:17.302Z,1007.62
2022-07-26T00:25:17.313Z,1007.70
2022-07-26T00:26:17.296Z,1007.59
2022-07-26T00:27:17.274Z,1007.71
2022-07-26T00:28:17.329Z,1007.65
2022-07-26T00:29:17.281Z,1007.64
2022-07-26T00:30:17.273Z,1007.69
2022-07-26T00:31:17.264Z,1007.64
2022-07-26T00:32:17.217Z,1007.65
2022-07-26T00:33:17.205Z,1007.68
2022-07-26T00:34:17.236Z,1007.68
2022-07-26T00:35:17.217Z,1007.70
2022-07-26T00:36:17.176Z,1007.67
2022-07-26T00:37:20.370Z,1007.67
2022-07-26T00:38:17.152Z,1007.76
2022-07-26T00:39:17.144Z,1007.70
2022-07-26T00:40:17.138Z,1007.74
2022-07-26T00:41:17.119Z,1007.76
2022-07-26T00:42:17.117Z,1007.72
2022-07-26T00:43:17.099Z,1007.75
2022-07-26T00:44:17.088Z,1007.70
2022-07-26T00:45:17.081Z,1007.72
2022-07-26T00:46:17.123Z,1007.73
2022-07-26T00:47:17.065Z,1007.77
2022-07-26T00:48:17.039Z,1007.75
2022-07-26T00:49:17.067Z,1007.69
2022-07-26T00:50:17.041Z,1007.69
2022-07-26T00:51:17.012Z,1007.72
2022-07-26T00:52:16.990Z,1007.66
2022-07-26T00:53:17.004Z,1007.71
2022-07-26T00:54:16.980Z,1007.69
2022-07-26T00:55:16.969Z,1007.74
2022-07-26T00:56:16.992Z,1007.75
2022-07-26T00:57:16.938Z,1007.71
2022-07-26T00:58:16.943Z,1007.75
2022-07-26T00:59:16.914Z,1007.72
2022-07-26T01:00:17.019Z,1007.71
2022-07-26T01:01:16.955Z,1007.72
2022-07-26T01:02:16.932Z,1007.72
2022-07-26T01:03:16.866Z,1007.72
2022-07-26T01:04:16.883Z,1007.75
2022-07-26T01:05:16.874Z,1007.70
2022-07-26T01:06:16.837Z,1007.68
2022-07-26T01:07:16.857Z,1007.68
2022-07-26T01:08:16.823Z,1007.77
2022-07-26T01:09:16.828Z,1007.77
2022-07-26T01:10:16.817Z,1007.78
2022-07-26T01:11:16.807Z,1007.75
2022-07-26T01:12:16.777Z,1007.74
2022-07-26T01:13:16.780Z,1007.66
2022-07-26T01:14:16.739Z,1007.71
2022-07-26T01:15:16.763Z,1007.67
2022-07-26T01:16:16.790Z,1007.72
2022-07-26T01:17:16.759Z,1007.77
2022-07-26T01:18:16.710Z,1007.73
2022-07-26T01:19:16.716Z,1007.72
2022-07-26T01:20:16.726Z,1007.68
2022-07-26T01:21:16.681Z,1007.66
2022-07-26T01:22:16.690Z,1007.64
2022-07-26T01:23:16.662Z,1007.66
2022-07-26T01:24:16.649Z,1007.72
2022-07-26T01:25:16.645Z,1007.71
2022-07-26T01:26:16.643Z,1007.68
2022-07-26T01:27:16.902Z,1007.62
2022-07-26T01:28:20.010Z,1007.64
2022-07-26T01:29:16.604Z,1007.64
2022-07-26T01:30:16.581Z,1007.70
2022-07-26T01:31:16.644Z,1007.63
2022-07-26T01:32:16.593Z,1007.71
2022-07-26T01:33:16.573Z,1007.73
2022-07-26T01:34:16.553Z,1007.69
2022-07-26T01:35:16.571Z,1007.67
2022-07-26T01:36:16.525Z,1007.75
2022-07-26T01:37:16.505Z,1007.75
2022-07-26T01:38:16.486Z,1007.70
2022-07-26T01:39:16.485Z,1007.62
2022-07-26T01:40:16.545Z,1007.62
2022-07-26T01:41:16.467Z,1007.63
2022-07-26T01:42:16.435Z,1007.61
2022-07-26T01:43:16.455Z,1007.62
2022-07-26T01:44:16.447Z,1007.59
2022-07-26T01:45:16.459Z,1007.60
2022-07-26T01:46:16.567Z,1007.58
2022-07-26T01:47:16.406Z,1007.57
2022-07-26T01:48:16.394Z,1007.56
2022-07-26T01:49:16.490Z,1007.52
2022-07-26T01:50:16.388Z,1007.55
2022-07-26T01:51:16.362Z,1007.52
2022-07-26T01:52:16.351Z,1007.60
2022-07-26T01:53:16.338Z,1007.65
2022-07-26T01:54:16.319Z,1007.57
2022-07-26T01:55:17.369Z,1007.59
2022-07-26T01:56:16.308Z,1007.56
2022-07-26T01:57:16.290Z,1007.58
2022-07-26T01:58:16.270Z,1007.62
2022-07-26T01:59:16.292Z,1007.59
2022-07-26T02:00:16.273Z,1007.61
2022-07-26T02:01:16.308Z,1007.56
2022-07-26T02:02:17.343Z,1007.56
2022-07-26T02:03:16.300Z,1007.62
2022-07-26T02:04:16.243Z,1007.62
2022-07-26T02:05:16.240Z,1007.58
2022-07-26T02:06:16.200Z,1007.62
2022-07-26T02:07:16.178Z,1007.62
2022-07-26T02:08:16.186Z,1007.68
2022-07-26T02:09:16.173Z,1007.65
2022-07-26T02:10:16.193Z,1007.68
2022-07-26T02:11:16.156Z,1007.64
2022-07-26T02:12:16.142Z,1007.71
2022-07-26T02:13:16.134Z,1007.70
2022-07-26T02:14:25.973Z,1007.69
2022-07-26T02:15:17.124Z,1007.72
2022-07-26T02:16:16.140Z,1007.68
2022-07-26T02:17:16.089Z,1007.71
2022-07-26T02:18:16.069Z,1007.71
2022-07-26T02:19:16.054Z,1007.66
2022-07-26T02:20:16.075Z,1007.73
2022-07-26T02:21:16.051Z,1007.69
2022-07-26T02:22:16.042Z,1007.71
2022-07-26T02:23:16.027Z,1007.65
2022-07-26T02:24:16.011Z,1007.72
2022-07-26T02:25:16.034Z,1007.67
2022-07-26T02:26:15.978Z,1007.71
2022-07-26T02:27:15.970Z,1007.65
2022-07-26T02:28:15.980Z,1007.65
2022-07-26T02:29:15.948Z,1007.64
2022-07-26T02:30:15.969Z,1007.65
2022-07-26T02:31:15.939Z,1007.71
2022-07-26T02:32:15.918Z,1007.65
2022-07-26T02:33:15.889Z,1007.60
2022-07-26T02:34:15.901Z,1007.68
2022-07-26T02:35:15.946Z,1007.63
2022-07-26T02:36:15.870Z,1007.64
2022-07-26T02:37:15.864Z,1007.75
2022-07-26T02:38:15.847Z,1007.77
2022-07-26T02:39:16.040Z,1007.70
2022-07-26T02:40:19.317Z,1007.66
2022-07-26T02:41:15.814Z,1007.74
2022-07-26T02:42:15.813Z,1007.78
2022-07-26T02:43:15.806Z,1007.81
2022-07-26T02:44:15.804Z,1007.83
2022-07-26T02:45:15.798Z,1007.82
2022-07-26T02:46:15.805Z,1007.83
2022-07-26T02:47:15.754Z,1007.81
2022-07-26T02:48:15.760Z,1007.81
2022-07-26T02:49:15.764Z,1007.82
2022-07-26T02:50:15.779Z,1007.83
2022-07-26T02:51:15.745Z,1007.90
2022-07-26T02:52:15.705Z,1007.87
2022-07-26T02:53:15.688Z,1007.90
2022-07-26T02:54:15.693Z,1007.88
2022-07-26T02:55:15.687Z,1007.91
2022-07-26T02:56:15.708Z,1007.85
2022-07-26T02:57:15.668Z,1007.88
2022-07-26T02:58:15.648Z,1007.84
2022-07-26T02:59:15.630Z,1007.83
2022-07-26T03:00:15.683Z,1007.84
2022-07-26T03:01:15.683Z,1007.81
2022-07-26T03:02:15.638Z,1007.83
2022-07-26T03:03:15.693Z,1007.79
2022-07-26T03:04:15.582Z,1007.78
2022-07-26T03:05:15.597Z,1007.80
2022-07-26T03:06:15.588Z,1007.80
2022-07-26T03:07:15.552Z,1007.78
2022-07-26T03:08:15.553Z,1007.76
2022-07-26T03:09:15.521Z,1007.78
2022-07-26T03:10:15.558Z,1007.74
2022-07-26T03:11:15.510Z,1007.79
2022-07-26T03:12:15.511Z,1007.81
2022-07-26T03:13:15.490Z,1007.81
2022-07-26T03:14:15.483Z,1007.87
2022-07-26T03:15:15.494Z,1007.89
2022-07-26T03:16:17.952Z,1007.88
2022-07-26T03:17:16.441Z,1007.89
2022-07-26T03:18:15.431Z,1007.95
2022-07-26T03:19:15.418Z,1007.95
2022-07-26T03:20:15.443Z,1007.91
2022-07-26T03:21:15.403Z,1007.92
2022-07-26T03:22:15.392Z,1007.92
2022-07-26T03:23:15.376Z,1007.94
2022-07-26T03:24:15.365Z,1007.90
2022-07-26T03:25:15.426Z,1007.94
2022-07-26T03:26:15.380Z,1007.87
2022-07-26T03:27:15.328Z,1007.85
2022-07-26T03:28:19.356Z,1007.88
2022-07-26T03:29:15.314Z,1007.90
2022-07-26T03:30:15.315Z,1007.92
2022-07-26T03:31:15.361Z,1007.89
2022-07-26T03:32:15.301Z,1007.87
2022-07-26T03:33:15.269Z,1007.91
2022-07-26T03:34:15.258Z,1007.93
2022-07-26T03:35:15.278Z,1007.95
2022-07-26T03:36:15.683Z,1007.92
2022-07-26T03:37:15.296Z,1007.96
2022-07-26T03:38:15.218Z,1007.96
2022-07-26T03:39:15.200Z,1007.97
2022-07-26T03:40:15.501Z,1007.92
2022-07-26T03:41:15.189Z,1007.99
2022-07-26T03:42:15.196Z,1007.96
2022-07-26T03:43:15.170Z,1007.99
2022-07-26T03:44:15.157Z,1007.95
2022-07-26T03:45:15.162Z,1007.95
2022-07-26T03:46:15.176Z,1007.98
2022-07-26T03:47:15.155Z,1007.95
2022-07-26T03:48:15.111Z,1007.96
2022-07-26T03:49:17.243Z,1007.97
2022-07-26T03:50:15.123Z,1007.95
2022-07-26T03:51:15.064Z,1008.04
2022-07-26T03:52:15.097Z,1007.96
2022-07-26T03:53:15.053Z,1008.00
2022-07-26T03:54:15.062Z,1008.00
2022-07-26T03:55:15.024Z,1008.00
2022-07-26T03:56:15.021Z,1008.01
2022-07-26T03:57:15.035Z,1007.96
2022-07-26T03:58:15.000Z,1007.97
2022-07-26T03:59:15.043Z,1008.03
2022-07-26T04:00:14.998Z,1008.04
2022-07-26T04:01:15.014Z,1008.05
2022-07-26T04:02:15.023Z,1008.00
2022-07-26T04:03:14.937Z,1008.08
2022-07-26T04:04:14.954Z,1007.98
2022-07-26T04:05:14.943Z,1008.05
2022-07-26T04:06:14.916Z,1008.11
2022-07-26T04:07:14.907Z,1008.08
2022-07-26T04:08:14.888Z,1008.06
2022-07-26T04:09:14.907Z,1008.13
2022-07-26T04:10:14.897Z,1008.11
2022-07-26T04:11:14.858Z,1008.11
2022-07-26T04:12:14.857Z,1008.11
2022-07-26T04:13:14.860Z,1008.12
2022-07-26T04:14:14.846Z,1008.16
2022-07-26T04:15:14.849Z,1008.15
2022-07-26T04:16:14.808Z,1008.16
2022-07-26T04:17:14.933Z,1008.18
2022-07-26T04:18:14.783Z,1008.19
2022-07-26T04:19:14.771Z,1008.16
2022-07-26T04:20:14.781Z,1008.14
2022-07-26T04:21:14.759Z,1008.16
2022-07-26T04:22:14.741Z,1008.12
2022-07-26T04:23:14.760Z,1008.19
2022-07-26T04:24:14.749Z,1008.19
2022-07-26T04:25:14.737Z,1008.20
2022-07-26T04:26:14.702Z,1008.12
2022-07-26T04:27:14.694Z,1008.14
2022-07-26T04:28:14.672Z,1008.14
2022-07-26T04:29:14.671Z,1008.09
2022-07-26T04:30:15.647Z,1008.06
2022-07-26T04:31:14.818Z,1008.10
2022-07-26T04:32:14.816Z,1008.09
2022-07-26T04:33:14.673Z,1008.05
2022-07-26T04:34:14.624Z,1008.07
2022-07-26T04:35:14.633Z,1008.06
2022-07-26T04:36:14.598Z,1008.02
2022-07-26T04:37:14.586Z,1008.06
2022-07-26T04:38:14.593Z,1008.07
2022-07-26T04:39:14.574Z,1008.08
2022-07-26T04:40:14.585Z,1008.00
2022-07-26T04:41:14.547Z,1007.97
2022-07-26T04:42:14.540Z,1008.02
2022-07-26T04:43:15.583Z,1008.01
2022-07-26T04:44:14.507Z,1008.04
2022-07-26T04:45:14.543Z,1008.05
2022-07-26T04:46:14.601Z,1007.98
2022-07-26T04:47:14.491Z,1008.03
2022-07-26T04:48:14.477Z,1008.00
2022-07-26T04:49:14.487Z,1008.01
2022-07-26T04:50:14.468Z,1007.99
2022-07-26T04:51:14.429Z,1008.05
2022-07-26T04:52:14.408Z,1008.03
2022-07-26T04:53:14.417Z,1008.00
2022-07-26T04:54:14.399Z,1008.01
2022-07-26T04:55:14.417Z,1008.03
2022-07-26T04:56:14.388Z,1008.00
2022-07-26T04:57:14.395Z,1008.05
2022-07-26T04:58:14.369Z,1007.99
2022-07-26T04:59:18.451Z,1008.02
2022-07-26T05:00:23.851Z,1008.06
2022-07-26T05:01:15.419Z,1008.07
2022-07-26T05:02:14.404Z,1007.99
2022-07-26T05:03:14.440Z,1008.06
2022-07-26T05:04:14.304Z,1008.09
2022-07-26T05:05:14.283Z,1008.09
2022-07-26T05:06:14.261Z,1008.08
2022-07-26T05:07:14.281Z,1008.05
2022-07-26T05:08:14.261Z,1008.08
2022-07-26T05:09:14.264Z,1008.01
2022-07-26T05:10:14.265Z,1008.05
2022-07-26T05:11:14.223Z,1008.05
2022-07-26T05:12:14.203Z,1008.06
2022-07-26T05:13:14.197Z,1008.08
2022-07-26T05:14:14.199Z,1008.12
2022-07-26T05:15:14.480Z,1008.05
2022-07-26T05:16:14.171Z,1008.12
2022-07-26T05:17:14.214Z,1008.02
2022-07-26T05:18:14.409Z,1007.98
2022-07-26T05:19:14.136Z,1008.03
2022-07-26T05:20:14.184Z,1007.98
2022-07-26T05:21:14.108Z,1008.00
2022-07-26T05:22:14.127Z,1008.01
2022-07-26T05:23:14.093Z,1007.97
2022-07-26T05:24:14.067Z,1007.99
2022-07-26T05:25:14.068Z,1008.00
2022-07-26T05:26:14.078Z,1008.02
2022-07-26T05:27:14.039Z,1008.03
2022-07-26T05:28:14.047Z,1008.09
2022-07-26T05:29:14.050Z,1008.08
2022-07-26T05:30:14.011Z,1008.04
2022-07-26T05:31:14.078Z,1008.08
2022-07-26T05:32:13.990Z,1008.02
2022-07-26T05:33:16.622Z,1008.03
2022-07-26T05:34:13.998Z,1008.02
2022-07-26T05:35:13.959Z,1008.05
2022-07-26T05:36:13.941Z,1008.03
2022-07-26T05:37:13.951Z,1008.08
2022-07-26T05:38:13.961Z,1007.94
2022-07-26T05:39:16.110Z,1008.00
2022-07-26T05:40:13.928Z,1008.03
2022-07-26T05:41:13.902Z,1008.03
2022-07-26T05:42:13.881Z,1008.02
2022-07-26T05:43:13.894Z,1008.03
2022-07-26T05:44:14.037Z,1008.07
2022-07-26T05:45:13.927Z,1008.06
2022-07-26T05:46:13.883Z,1008.03
2022-07-26T05:47:13.839Z,1008.02
2022-07-26T05:48:13.844Z,1007.98
2022-07-26T05:49:13.939Z,1008.02
2022-07-26T05:50:13.788Z,1008.04
2022-07-26T05:51:13.786Z,1008.06
2022-07-26T05:52:13.774Z,1007.99
2022-07-26T05:53:13.756Z,1007.99
2022-07-26T05:54:13.776Z,1008.02
2022-07-26T05:55:13.791Z,1008.04
2022-07-26T05:56:13.737Z,1008.00
2022-07-26T05:57:14.457Z,1007.99
2022-07-26T05:58:13.739Z,1008.02
2022-07-26T05:59:13.699Z,1007.98
2022-07-26T06:00:13.711Z,1007.99
2022-07-26T06:01:13.677Z,1008.03
2022-07-26T06:02:13.705Z,1008.02
2022-07-26T06:03:13.690Z,1008.04
2022-07-26T06:04:14.077Z,1008.05
2022-07-26T06:05:13.672Z,1008.10
2022-07-26T06:06:13.630Z,1008.11
2022-07-26T06:07:13.695Z,1008.11
2022-07-26T06:08:13.619Z,1008.11
2022-07-26T06:09:13.633Z,1008.05
2022-07-26T06:10:13.613Z,1008.16
2022-07-26T06:11:13.583Z,1008.14
2022-07-26T06:12:13.559Z,1008.20
2022-07-26T06:13:13.591Z,1008.12
2022-07-26T06:14:14.007Z,1008.15
2022-07-26T06:15:14.890Z,1008.22
2022-07-26T06:16:13.523Z,1008.17
2022-07-26T06:17:13.573Z,1008.15
2022-07-26T06:18:13.492Z,1008.13
2022-07-26T06:19:13.495Z,1008.15
2022-07-26T06:20:13.484Z,1008.14
2022-07-26T06:21:13.465Z,1008.16
2022-07-26T06:22:13.469Z,1008.15
2022-07-26T06:23:13.472Z,1008.17
2022-07-26T06:24:13.441Z,1008.20
2022-07-26T06:25:13.443Z,1008.17
2022-07-26T06:26:13.434Z,1008.17
2022-07-26T06:27:13.398Z,1008.12
2022-07-26T06:28:13.433Z,1008.18
2022-07-26T06:29:13.394Z,1008.08
2022-07-26T06:30:13.399Z,1008.11
2022-07-26T06:31:13.390Z,1008.11
2022-07-26T06:32:13.391Z,1008.06
2022-07-26T06:33:14.427Z,1008.10
2022-07-26T06:34:14.356Z,1008.15
2022-07-26T06:35:13.339Z,1008.19
2022-07-26T06:36:13.307Z,1008.20
2022-07-26T06:37:16.772Z,1008.13
2022-07-26T06:38:13.301Z,1008.17
2022-07-26T06:39:13.499Z,1008.19
2022-07-26T06:40:14.400Z,1008.10
2022-07-26T06:41:13.253Z,1008.13
2022-07-26T06:42:13.272Z,1008.23
2022-07-26T06:43:14.901Z,1008.18
2022-07-26T06:44:13.218Z,1008.11
2022-07-26T06:45:13.240Z,1008.18
2022-07-26T06:46:13.998Z,1008.35
2022-07-26T06:47:13.181Z,1008.26
2022-07-26T06:48:13.184Z,1008.29
2022-07-26T06:49:13.232Z,1008.29
2022-07-26T06:50:13.179Z,1008.18
2022-07-26T06:51:13.143Z,1008.18
2022-07-26T06:52:13.276Z,1008.15
2022-07-26T06:53:13.113Z,1008.26
2022-07-26T06:54:13.124Z,1008.22
2022-07-26T06:55:13.130Z,1008.24
2022-07-26T06:56:13.084Z,1008.19
2022-07-26T06:57:13.073Z,1008.33
2022-07-26T06:58:13.061Z,1008.23
2022-07-26T06:59:13.053Z,1008.33
2022-07-26T07:00:13.066Z,1008.22
2022-07-26T07:01:13.157Z,1008.18
2022-07-26T07:02:15.137Z,1008.22
2022-07-26T07:03:13.016Z,1008.23
2022-07-26T07:04:13.182Z,1008.26
2022-07-26T07:05:13.076Z,1008.24
2022-07-26T07:06:14.005Z,1008.33
2022-07-26T07:07:12.966Z,1008.18
2022-07-26T07:08:13.654Z,1008.22
2022-07-26T07:09:12.967Z,1008.23
2022-07-26T07:10:12.947Z,1008.16
2022-07-26T07:11:12.950Z,1008.22
2022-07-26T07:12:12.907Z,1008.21
2022-07-26T07:13:12.919Z,1008.17
2022-07-26T07:14:12.914Z,1008.26
2022-07-26T07:15:12.890Z,1008.37
2022-07-26T07:16:12.922Z,1008.33
2022-07-26T07:17:17.134Z,1008.29
2022-07-26T07:18:13.850Z,1008.39
2022-07-26T07:19:13.358Z,1008.34
2022-07-26T07:20:13.098Z,1008.39
2022-07-26T07:21:12.817Z,1008.37
2022-07-26T07:22:12.980Z,1008.34
2022-07-26T07:23:12.789Z,1008.28
2022-07-26T07:24:12.798Z,1008.43
2022-07-26T07:25:14.775Z,1008.44
2022-07-26T07:26:12.786Z,1008.45
2022-07-26T07:27:12.753Z,1008.43
2022-07-26T07:28:12.752Z,1008.46
2022-07-26T07:29:12.761Z,1008.48
2022-07-26T07:30:12.745Z,1008.56
2022-07-26T07:31:12.785Z,1008.53
2022-07-26T07:32:15.902Z,1008.54
2022-07-26T07:33:22.233Z,1008.51
2022-07-26T07:34:13.685Z,1008.48
2022-07-26T07:35:13.204Z,1008.42
2022-07-26T07:36:12.658Z,1008.58
2022-07-26T07:37:12.656Z,1008.44
2022-07-26T07:38:12.636Z,1008.54
2022-07-26T07:39:17.466Z,1008.39
2022-07-26T07:40:13.614Z,1008.34
2022-07-26T07:41:12.604Z,1008.47
2022-07-26T07:42:12.584Z,1008.53
2022-07-26T07:43:12.610Z,1008.51
2022-07-26T07:44:12.582Z,1008.53
2022-07-26T07:45:12.590Z,1008.60
2022-07-26T07:46:12.585Z,1008.49
2022-07-26T07:47:12.583Z,1008.48
2022-07-26T07:48:12.510Z,1008.51
2022-07-26T07:49:12.950Z,1008.51
2022-07-26T07:50:12.512Z,1008.59
2022-07-26T07:51:12.570Z,1008.50
2022-07-26T07:52:12.472Z,1008.56
2022-07-26T07:53:12.478Z,1008.60
2022-07-26T07:54:12.479Z,1008.61
2022-07-26T07:55:40.722Z,1008.71
2022-07-26T07:56:13.428Z,1008.63
2022-07-26T07:57:13.691Z,1008.67
2022-07-26T07:58:12.412Z,1008.68
2022-07-26T07:59:12.972Z,1008.74
2022-07-26T08:00:12.425Z,1008.63
2022-07-26T08:01:13.313Z,1008.63
2022-07-26T08:02:12.371Z,1008.64
2022-07-26T08:03:12.604Z,1008.67
2022-07-26T08:04:13.444Z,1008.62
2022-07-26T08:05:15.164Z,1008.67
2022-07-26T08:06:12.328Z,1008.87
2022-07-26T08:07:12.325Z,1008.64
2022-07-26T08:08:12.309Z,1008.72
2022-07-26T08:09:13.422Z,1008.79
2022-07-26T08:10:12.294Z,1008.74
2022-07-26T08:11:12.462Z,1008.97
2022-07-26T08:12:12.246Z,1008.81
2022-07-26T08:13:12.243Z,1008.81
2022-07-26T08:14:12.221Z,1008.93
2022-07-26T08:15:12.242Z,1008.79
2022-07-26T08:16:12.238Z,1008.83
2022-07-26T08:17:12.207Z,1008.86
2022-07-26T08:18:12.206Z,1008.90
2022-07-26T08:19:12.571Z,1008.82
2022-07-26T08:20:15.696Z,1008.79
2022-07-26T08:21:12.169Z,1008.82
2022-07-26T08:22:12.147Z,1008.86
2022-07-26T08:23:12.144Z,1008.87
2022-07-26T08:24:12.131Z,1008.80
2022-07-26T08:25:12.136Z,1008.87
2022-07-26T08:26:12.096Z,1008.89
2022-07-26T08:27:12.117Z,1008.86
2022-07-26T08:28:30.633Z,1008.87
2022-07-26T08:29:13.482Z,1008.95
2022-07-26T08:30:12.101Z,1008.95
2022-07-26T08:31:12.179Z,1008.92
2022-07-26T08:32:12.038Z,1008.93
2022-07-26T08:33:12.030Z,1008.98
2022-07-26T08:34:12.019Z,1008.91
2022-07-26T08:35:17.985Z,1008.91
2022-07-26T08:36:12.989Z,1008.86
2022-07-26T08:37:17.525Z,1009.02
2022-07-26T08:38:12.973Z,1009.03
2022-07-26T08:39:11.991Z,1008.90
2022-07-26T08:40:11.982Z,1008.92
2022-07-26T08:41:11.941Z,1008.96
2022-07-26T08:42:11.942Z,1008.98
2022-07-26T08:43:11.912Z,1008.92
2022-07-26T08:44:11.915Z,1008.91
2022-07-26T08:45:11.965Z,1008.95
2022-07-26T08:46:11.933Z,1008.97
2022-07-26T08:47:11.875Z,1009.07
2022-07-26T08:48:19.108Z,1009.12
2022-07-26T08:49:13.844Z,1009.12
2022-07-26T08:50:11.908Z,1009.31
2022-07-26T08:51:11.843Z,1009.28
2022-07-26T08:52:11.815Z,1009.41
2022-07-26T08:53:11.873Z,1009.35
2022-07-26T08:54:11.795Z,1009.55
2022-07-26T08:55:11.828Z,1009.35
2022-07-26T08:56:11.774Z,1009.27
2022-07-26T08:57:11.778Z,1009.50
2022-07-26T08:58:11.758Z,1009.49
2022-07-26T08:59:18.561Z,1009.51
2022-07-26T09:00:12.768Z,1009.56
2022-07-26T09:01:11.769Z,1009.59
2022-07-26T09:02:11.711Z,1009.67
2022-07-26T09:03:11.747Z,1009.66
2022-07-26T09:04:13.743Z,1009.73
2022-07-26T09:05:11.698Z,1009.68
2022-07-26T09:06:11.670Z,1009.66
2022-07-26T09:07:11.649Z,1009.66
2022-07-26T09:08:11.638Z,1009.83
2022-07-26T09:09:11.969Z,1009.58
2022-07-26T09:10:12.864Z,1009.78
2022-07-26T09:11:12.541Z,1009.65
2022-07-26T09:12:11.856Z,1009.78
2022-07-26T09:13:11.599Z,1009.80
2022-07-26T09:14:11.589Z,1009.75
2022-07-26T09:15:11.622Z,1009.80
2022-07-26T09:16:11.605Z,1009.84
2022-07-26T09:17:11.550Z,1009.81
2022-07-26T09:18:11.534Z,1009.83
2022-07-26T09:19:11.693Z,1009.77
2022-07-26T09:20:11.526Z,1009.84
2022-07-26T09:21:11.510Z,1009.84
2022-07-26T09:22:11.482Z,1009.92
2022-07-26T09:23:11.474Z,1009.91
2022-07-26T09:24:11.483Z,1009.98
2022-07-26T09:25:11.453Z,1010.01
2022-07-26T09:26:11.568Z,1010.00
2022-07-26T09:27:11.546Z,1009.97
2022-07-26T09:28:11.476Z,1010.05
2022-07-26T09:29:13.350Z,1009.98
2022-07-26T09:30:11.426Z,1010.01
2022-07-26T09:31:11.630Z,1010.14
2022-07-26T09:32:11.398Z,1010.28
2022-07-26T09:33:11.407Z,1010.17
2022-07-26T09:34:11.686Z,1010.11
2022-07-26T09:35:44.203Z,1010.12
2022-07-26T09:36:12.346Z,1010.13
2022-07-26T09:37:12.611Z,1010.15
2022-07-26T09:38:11.330Z,1010.18
2022-07-26T09:39:11.679Z,1010.17
2022-07-26T09:40:11.323Z,1010.25
2022-07-26T09:41:11.340Z,1010.24
2022-07-26T09:42:27.263Z,1010.31
2022-07-26T09:43:12.274Z,1010.20
2022-07-26T09:44:11.633Z,1010.17
2022-07-26T09:45:11.371Z,1010.19
2022-07-26T09:46:12.958Z,1010.24
2022-07-26T09:47:11.231Z,1010.19
2022-07-26T09:48:11.228Z,1010.18
2022-07-26T09:49:12.996Z,1010.18
2022-07-26T09:50:12.211Z,1010.24
2022-07-26T09:51:11.756Z,1010.19
2022-07-26T09:52:12.311Z,1010.19
2022-07-26T09:53:11.170Z,1010.27
2022-07-26T09:54:11.580Z,1010.24
2022-07-26T09:55:11.810Z,1010.46
2022-07-26T09:56:11.381Z,1010.31
2022-07-26T09:57:11.163Z,1010.38
2022-07-26T09:58:12.865Z,1010.25
2022-07-26T09:59:11.101Z,1010.34
2022-07-26T10:00:11.187Z,1010.34
2022-07-26T10:01:11.077Z,1010.42
2022-07-26T10:02:11.099Z,1010.36
2022-07-26T10:03:11.097Z,1010.38
2022-07-26T10:04:16.476Z,1010.32
2022-07-26T10:05:12.571Z,1010.28
2022-07-26T10:06:12.586Z,1010.32
2022-07-26T10:07:11.578Z,1010.26
2022-07-26T10:08:14.652Z,1010.33
2022-07-26T10:09:16.931Z,1010.41
2022-07-26T10:10:12.884Z,1010.41
2022-07-26T10:11:13.165Z,1010.44
2022-07-26T10:12:12.159Z,1010.39
2022-07-26T10:13:10.936Z,1010.43
2022-07-26T10:14:12.189Z,1010.58
2022-07-26T10:15:12.087Z,1010.49
2022-07-26T10:16:13.547Z,1010.41
2022-07-26T10:17:13.297Z,1010.42
2022-07-26T10:18:16.852Z,1010.49
2022-07-26T10:19:10.879Z,1010.53
2022-07-26T10:20:19.435Z,1010.48
2022-07-26T10:21:11.869Z,1010.50
2022-07-26T10:22:13.659Z,1010.50
2022-07-26T10:23:10.901Z,1010.63
2022-07-26T10:24:11.188Z,1010.69
2022-07-26T10:25:10.843Z,1010.75
2022-07-26T10:26:10.811Z,1010.75
2022-07-26T10:27:10.802Z,1010.68
2022-07-26T10:28:13.064Z,1010.68
2022-07-26T10:29:11.810Z,1010.77
2022-07-26T10:30:10.791Z,1010.83
2022-07-26T10:31:10.763Z,1010.67
2022-07-26T10:32:10.742Z,1010.80
2022-07-26T10:33:10.732Z,1010.82
2022-07-26T10:34:10.988Z,1010.83
2022-07-26T10:35:10.723Z,1010.78
2022-07-26T10:36:10.725Z,1010.72
2022-07-26T10:37:10.683Z,1010.80
2022-07-26T10:38:10.683Z,1010.78
2022-07-26T10:39:10.675Z,1010.79
2022-07-26T10:40:10.651Z,1010.81
2022-07-26T10:41:10.835Z,1010.83
2022-07-26T10:42:10.626Z,1010.79
2022-07-26T10:43:39.573Z,1010.82
2022-07-26T10:44:12.083Z,1010.89
2022-07-26T10:45:10.619Z,1010.82
2022-07-26T10:46:10.640Z,1010.95
2022-07-26T10:47:10.580Z,1010.95
2022-07-26T10:48:10.582Z,1010.81
2022-07-26T10:49:10.635Z,1011.04
2022-07-26T10:50:10.650Z,1010.95
2022-07-26T10:51:10.531Z,1011.01
2022-07-26T10:52:10.527Z,1011.00
2022-07-26T10:53:10.607Z,1010.93
2022-07-26T10:54:10.836Z,1011.03
2022-07-26T10:55:10.520Z,1011.04
2022-07-26T10:56:10.468Z,1010.92
2022-07-26T10:57:10.478Z,1010.98
2022-07-26T10:58:10.455Z,1011.03
2022-07-26T10:59:10.465Z,1011.13
2022-07-26T11:00:10.487Z,1011.02
2022-07-26T11:01:10.434Z,1011.10
2022-07-26T11:02:10.542Z,1011.18
2022-07-26T11:03:10.454Z,1011.07
2022-07-26T11:04:10.753Z,1010.98
2022-07-26T11:05:10.417Z,1011.08
2022-07-26T11:06:10.362Z,1011.17
2022-07-26T11:07:10.388Z,1011.09
2022-07-26T11:08:10.583Z,1011.03
2022-07-26T11:09:10.342Z,1011.13
2022-07-26T11:10:10.336Z,1011.05
2022-07-26T11:11:10.351Z,1011.11
2022-07-26T11:12:10.344Z,1011.11
2022-07-26T11:13:10.304Z,1011.17
2022-07-26T11:14:10.649Z,1011.22
2022-07-26T11:15:10.315Z,1011.17
2022-07-26T11:16:10.319Z,1011.23
2022-07-26T11:17:10.258Z,1011.17
2022-07-26T11:18:10.266Z,1011.28
2022-07-26T11:19:10.248Z,1011.38
2022-07-26T11:20:10.234Z,1011.29
2022-07-26T11:21:10.225Z,1011.52
2022-07-26T11:22:10.299Z,1011.29
2022-07-26T11:23:10.382Z,1011.30
2022-07-26T11:24:10.500Z,1011.53
2022-07-26T11:25:10.262Z,1011.34
2022-07-26T11:26:10.170Z,1011.34
2022-07-26T11:27:10.159Z,1011.31
2022-07-26T11:28:10.146Z,1011.50
2022-07-26T11:29:10.139Z,1011.37
2022-07-26T11:30:11.172Z,1011.37
2022-07-26T11:31:10.185Z,1011.33
2022-07-26T11:32:14.782Z,1011.38
2022-07-26T11:33:11.121Z,1011.37
2022-07-26T11:34:11.412Z,1011.34
2022-07-26T11:35:10.102Z,1011.49
2022-07-26T11:36:10.052Z,1011.39
2022-07-26T11:37:10.050Z,1011.44
2022-07-26T11:38:12.451Z,1011.33
2022-07-26T11:39:10.013Z,1011.46
2022-07-26T11:40:10.033Z,1011.55
2022-07-26T11:41:10.003Z,1011.35
2022-07-26T11:42:10.002Z,1011.38
2022-07-26T11:43:10.021Z,1011.41
2022-07-26T11:44:10.201Z,1011.44
2022-07-26T11:45:09.994Z,1011.59
2022-07-26T11:46:10.014Z,1011.45
2022-07-26T11:47:09.952Z,1011.45
2022-07-26T11:48:09.927Z,1011.53
2022-07-26T11:49:09.991Z,1011.49
2022-07-26T11:50:16.558Z,1011.65
2022-07-26T11:51:10.928Z,1011.53
2022-07-26T11:52:09.885Z,1011.58
2022-07-26T11:53:09.873Z,1011.62
2022-07-26T11:54:10.152Z,1011.41
2022-07-26T11:55:09.940Z,1011.74
2022-07-26T11:56:09.836Z,1011.55
2022-07-26T11:57:09.835Z,1011.59
2022-07-26T11:58:09.930Z,1011.58
2022-07-26T11:59:09.809Z,1011.61
2022-07-26T12:00:09.799Z,1011.56
2022-07-26T12:01:09.800Z,1011.59
2022-07-26T12:02:09.800Z,1011.53
2022-07-26T12:03:09.769Z,1011.68
2022-07-26T12:04:10.113Z,1011.69
2022-07-26T12:05:10.008Z,1011.69